createdAt,value
2022-08-02T00:07:17.581Z,3.90
2022-08-02T00:09:47.212Z,3.10
2022-08-02T00:12:15.399Z,5.40
2022-08-02T00:14:43.708Z,3.10
2022-08-02T00:17:12.085Z,3.13
2022-08-02T00:19:40.347Z,3.57
2022-08-02T00:22:12.018Z,4.40
2022-08-02T00:24:40.735Z,5.63
2022-08-02T00:27:10.546Z,4.07
2022-08-02T00:29:44.442Z,5.40
2022-08-02T00:32:21.705Z,4.93
2022-08-02T00:34:50.440Z,4.63
2022-08-02T00:37:18.671Z,6.20
2022-08-02T00:39:47.279Z,4.00
2022-08-02T00:42:17.575Z,6.27
2022-08-02T00:44:45.730Z,4.63
2022-08-02T00:47:19.053Z,4.43
2022-08-02T00:49:48.318Z,4.27
2022-08-02T00:52:16.743Z,4.37
2022-08-02T00:54:44.925Z,4.60
2022-08-02T00:57:13.232Z,4.50
2022-08-02T00:59:43.137Z,4.30
2022-08-02T01:07:12.250Z,4.23
2022-08-02T01:09:43.050Z,4.60
2022-08-02T01:12:13.395Z,4.40
2022-08-02T01:14:47.209Z,5.90
2022-08-02T01:17:24.999Z,4.03
2022-08-02T01:19:58.667Z,7.43
2022-08-02T01:23:01.072Z,7.00
2022-08-02T01:25:42.220Z,5.37
2022-08-02T01:28:34.295Z,5.30
2022-08-02T01:31:07.231Z,10.60
2022-08-02T01:33:42.687Z,5.43
2022-08-02T01:36:14.196Z,4.77
2022-08-02T01:38:47.398Z,6.37
2022-08-02T01:41:19.884Z,6.27
2022-08-02T01:43:53.919Z,5.07
2022-08-02T01:46:23.237Z,9.73
2022-08-02T01:48:54.977Z,6.20
2022-08-02T01:51:45.072Z,4.83
2022-08-02T01:54:18.576Z,5.03
2022-08-02T01:56:47.917Z,6.50
2022-08-02T01:59:23.390Z,5.17
2022-08-02T02:01:53.730Z,5.30
2022-08-02T02:04:23.141Z,4.60
2022-08-02T02:06:52.033Z,6.37
2022-08-02T02:09:21.246Z,6.53
2022-08-02T02:12:14.186Z,11.27
2022-08-02T02:14:42.199Z,8.83
2022-08-02T02:18:10.508Z,9.93
2022-08-02T02:20:14.414Z,12.47
2022-08-02T02:22:43.355Z,5.50
2022-08-02T02:25:15.152Z,9.13
2022-08-02T02:27:51.504Z,6.50
2022-08-02T02:30:21.183Z,5.70
2022-08-02T02:32:52.395Z,7.70
2022-08-02T02:35:22.648Z,7.50
2022-08-02T02:37:52.462Z,10.67
2022-08-02T02:40:22.002Z,6.60
2022-08-02T02:42:52.540Z,6.50
2022-08-02T02:45:23.083Z,9.37
2022-08-02T02:47:52.175Z,7.83
2022-08-02T02:50:21.724Z,9.70
2022-08-02T02:52:50.857Z,7.10
2022-08-02T02:55:19.698Z,7.17
2022-08-02T02:57:49.136Z,7.63
2022-08-02T03:00:18.159Z,11.53
2022-08-02T03:02:48.960Z,9.40
2022-08-02T03:05:17.511Z,8.23
2022-08-02T03:07:45.908Z,7.73
2022-08-02T03:10:14.185Z,8.30
2022-08-02T03:12:42.450Z,7.83
2022-08-02T03:15:14.488Z,11.97
2022-08-02T03:17:44.301Z,7.57
2022-08-02T03:20:16.493Z,7.33
2022-08-02T03:22:46.327Z,8.43
2022-08-02T03:25:16.202Z,6.90
2022-08-02T03:27:44.494Z,6.97
2022-08-02T03:30:15.185Z,6.60
2022-08-02T03:32:47.525Z,8.97
2022-08-02T03:35:23.765Z,8.93
2022-08-02T03:37:55.235Z,7.20
2022-08-02T03:40:24.448Z,8.60
2022-08-02T03:42:53.657Z,11.80
2022-08-02T03:45:22.225Z,7.07
2022-08-02T03:47:51.730Z,7.57
2022-08-02T03:50:22.994Z,11.77
2022-08-02T03:52:52.058Z,7.27
2022-08-02T03:55:20.539Z,7.33
2022-08-02T03:57:49.156Z,8.10
2022-08-02T04:00:20.959Z,13.97
2022-08-02T04:03:13.542Z,7.53
2022-08-02T04:06:00.780Z,7.07
2022-08-02T04:08:35.874Z,11.10
2022-08-02T04:11:23.422Z,7.63
2022-08-02T04:13:52.136Z,11.27
2022-08-02T04:16:31.015Z,10.50
2022-08-02T04:19:03.668Z,7.00
2022-08-02T04:21:49.896Z,6.97
2022-08-02T04:24:25.048Z,10.53
2022-08-02T04:26:57.628Z,7.73
2022-08-02T04:29:30.539Z,8.53
2022-08-02T04:32:00.136Z,8.63
2022-08-02T04:34:28.562Z,7.43
2022-08-02T04:36:58.847Z,9.93
2022-08-02T04:39:27.431Z,9.90
2022-08-02T04:41:57.823Z,8.63
2022-08-02T04:44:26.929Z,8.33
2022-08-02T04:46:56.148Z,6.93
2022-08-02T04:49:24.542Z,8.00
2022-08-02T04:51:52.924Z,10.57
2022-08-02T04:54:22.859Z,8.13
2022-08-02T04:56:51.084Z,8.10
2022-08-02T04:59:19.561Z,9.63
2022-08-02T05:01:48.138Z,8.63
2022-08-02T05:04:16.348Z,8.47
2022-08-02T05:06:44.748Z,8.70
2022-08-02T05:09:13.440Z,10.47
2022-08-02T05:11:43.181Z,10.87
2022-08-02T05:14:23.328Z,14.23
2022-08-02T05:16:51.755Z,13.73
2022-08-02T05:19:20.156Z,10.83
2022-08-02T05:21:49.047Z,13.93
2022-08-02T05:24:17.595Z,8.77
2022-08-02T05:26:47.176Z,8.90
2022-08-02T05:29:15.563Z,11.60
2022-08-02T05:31:45.831Z,12.33
2022-08-02T05:34:14.036Z,9.50
2022-08-02T05:36:42.906Z,10.03
2022-08-02T05:39:12.439Z,12.23
2022-08-02T05:41:49.028Z,8.63
2022-08-02T05:44:17.190Z,11.20
2022-08-02T05:46:45.430Z,12.07
2022-08-02T05:49:16.249Z,12.73
2022-08-02T05:51:51.645Z,11.63
2022-08-02T05:54:24.919Z,9.00
2022-08-02T05:57:04.583Z,8.37
2022-08-02T05:59:38.158Z,13.80
2022-08-02T06:02:28.593Z,8.00
2022-08-02T06:05:05.499Z,9.93
2022-08-02T06:07:37.173Z,7.17
2022-08-02T06:10:06.709Z,9.13
2022-08-02T06:12:42.683Z,7.13
2022-08-02T06:15:14.906Z,9.17
2022-08-02T06:17:48.030Z,7.33
2022-08-02T06:20:17.312Z,14.20
2022-08-02T06:22:47.360Z,8.00
2022-08-02T06:25:49.953Z,7.80
2022-08-02T06:28:11.691Z,7.73
2022-08-02T06:30:40.882Z,10.47
2022-08-02T06:33:09.646Z,8.50
2022-08-02T06:35:47.016Z,8.00
2022-08-02T06:38:21.546Z,9.03
2022-08-02T06:40:57.988Z,9.17
2022-08-02T06:43:39.569Z,7.83
2022-08-02T06:46:37.558Z,10.93
2022-08-02T06:48:58.063Z,8.17
2022-08-02T06:51:26.332Z,11.13
2022-08-02T06:53:54.730Z,6.83
2022-08-02T06:56:23.604Z,9.60
2022-08-02T06:58:53.432Z,9.03
2022-08-02T07:01:21.952Z,9.93
2022-08-02T07:03:50.897Z,8.73
2022-08-02T07:06:19.405Z,7.43
2022-08-02T07:09:11.140Z,13.70
2022-08-02T07:11:37.571Z,8.60
2022-08-02T07:14:07.373Z,7.00
2022-08-02T07:16:36.303Z,9.43
2022-08-02T07:19:04.988Z,5.67
2022-08-02T07:21:56.964Z,6.60
2022-08-02T07:24:21.915Z,5.83
2022-08-02T07:27:10.610Z,4.60
2022-08-02T07:29:46.613Z,4.83
2022-08-02T07:32:16.092Z,7.07
2022-08-02T07:34:50.509Z,7.50
2022-08-02T07:37:33.929Z,6.83
2022-08-02T07:40:14.713Z,5.53
2022-08-02T07:42:44.574Z,3.97
2022-08-02T07:45:15.079Z,4.63
2022-08-02T07:47:44.514Z,3.53
2022-08-02T07:50:14.290Z,3.83
2022-08-02T07:52:43.238Z,9.00
2022-08-02T07:55:12.696Z,7.10
2022-08-02T07:57:46.100Z,3.20
2022-08-02T08:00:18.307Z,5.30
2022-08-02T08:02:47.127Z,3.30
2022-08-02T08:05:16.353Z,3.03
2022-08-02T08:07:44.732Z,3.30
2022-08-02T08:10:13.024Z,2.75
2022-08-02T08:12:41.407Z,2.80
2022-08-02T08:15:10.862Z,5.68
2022-08-02T08:17:40.863Z,2.50
2022-08-02T08:20:14.037Z,2.60
2022-08-02T08:22:44.029Z,2.28
2022-08-02T08:25:12.440Z,2.67
2022-08-02T08:27:49.243Z,1.95
2022-08-02T08:30:18.148Z,1.70
2022-08-02T08:32:47.830Z,4.07
2022-08-02T08:35:16.374Z,2.20
2022-08-02T08:37:44.948Z,1.35
2022-08-02T08:40:19.428Z,3.22
2022-08-02T08:42:48.568Z,4.65
2022-08-02T08:45:18.097Z,1.73
2022-08-02T08:47:53.527Z,1.48
2022-08-02T08:50:25.485Z,4.55
2022-08-02T08:52:58.773Z,3.00
2022-08-02T08:55:29.423Z,1.77
2022-08-02T08:58:00.613Z,2.70
2022-08-02T09:00:30.698Z,1.50
2022-08-02T09:03:04.896Z,6.90
2022-08-02T09:05:36.279Z,7.55
2022-08-02T09:08:06.053Z,3.28
2022-08-02T09:10:39.984Z,2.10
2022-08-02T09:13:37.824Z,1.90
2022-08-02T09:16:11.105Z,4.60
2022-08-02T09:18:46.366Z,2.72
2022-08-02T09:21:17.603Z,2.47
2022-08-02T09:23:47.647Z,3.70
2022-08-02T09:26:18.837Z,2.85
2022-08-02T09:28:50.310Z,1.90
2022-08-02T09:31:20.216Z,2.08
2022-08-02T09:33:54.576Z,2.58
2022-08-02T09:36:24.210Z,1.63
2022-08-02T09:38:58.176Z,4.05
2022-08-02T09:41:28.388Z,2.47
2022-08-02T09:44:04.416Z,1.75
2022-08-02T09:46:38.458Z,1.75
2022-08-02T09:49:10.635Z,2.60
2022-08-02T09:51:41.012Z,4.07
2022-08-02T09:54:12.009Z,4.00
2022-08-02T09:56:46.435Z,3.13
2022-08-02T09:59:15.585Z,3.15
2022-08-02T10:01:51.614Z,2.50
2022-08-02T10:04:55.138Z,1.40
2022-08-02T10:07:24.187Z,2.80
2022-08-02T10:09:53.003Z,2.67
2022-08-02T10:12:22.456Z,1.50
2022-08-02T10:14:52.797Z,3.28
2022-08-02T10:17:21.972Z,3.92
2022-08-02T10:20:02.706Z,1.67
2022-08-02T10:22:35.259Z,1.75
2022-08-02T10:25:05.162Z,1.70
2022-08-02T10:27:55.435Z,3.25
2022-08-02T10:30:24.956Z,2.10
2022-08-02T10:32:55.035Z,1.83
2022-08-02T10:35:26.723Z,1.60
2022-08-02T10:38:03.347Z,4.20
2022-08-02T10:40:45.535Z,1.52
2022-08-02T10:43:14.616Z,2.47
2022-08-02T10:45:44.860Z,2.15
2022-08-02T10:48:15.661Z,1.88
2022-08-02T10:50:56.899Z,1.10
2022-08-02T10:53:31.375Z,2.17
2022-08-02T10:56:01.255Z,1.98
2022-08-02T10:58:32.403Z,1.92
2022-08-02T11:01:05.832Z,2.00
2022-08-02T11:03:40.699Z,1.50
2022-08-02T11:06:25.868Z,1.60
2022-08-02T11:09:32.855Z,2.67
2022-08-02T11:12:04.377Z,4.53
2022-08-02T11:14:35.375Z,4.10
2022-08-02T11:17:13.842Z,2.42
2022-08-02T11:23:44.378Z,3.70
2022-08-02T11:26:46.945Z,1.80
2022-08-02T11:29:15.911Z,5.32
2022-08-02T11:31:46.129Z,1.58
2022-08-02T11:34:37.242Z,1.23
2022-08-02T11:37:03.350Z,1.50
2022-08-02T11:39:31.862Z,4.20
2022-08-02T11:42:02.318Z,7.63
2022-08-02T11:44:40.248Z,1.77
2022-08-02T11:47:09.121Z,2.60
2022-08-02T11:49:38.856Z,1.60
2022-08-02T11:52:10.974Z,2.15
2022-08-02T11:54:41.435Z,1.40
2022-08-02T11:57:20.577Z,2.55
2022-08-02T11:59:54.776Z,1.40
2022-08-02T12:02:24.944Z,3.97
2022-08-02T12:04:57.341Z,3.35
2022-08-02T12:07:34.952Z,2.65
2022-08-02T12:10:08.742Z,2.20
2022-08-02T12:12:50.938Z,1.23
2022-08-02T12:15:31.434Z,3.20
2022-08-02T12:18:17.986Z,1.10
2022-08-02T12:20:46.481Z,1.38
2022-08-02T12:23:14.999Z,4.22
2022-08-02T12:26:43.438Z,3.03
2022-08-02T12:29:15.858Z,1.20
2022-08-02T12:32:05.697Z,1.65
2022-08-02T12:34:36.266Z,2.35
2022-08-02T12:37:07.665Z,1.65
2022-08-02T12:39:38.805Z,1.35
2022-08-02T12:42:25.795Z,1.55
2022-08-02T12:44:57.907Z,1.27
2022-08-02T12:47:31.399Z,2.80
2022-08-02T12:50:15.076Z,2.60
2022-08-02T12:52:47.085Z,1.10
2022-08-02T12:56:01.905Z,1.40
2022-08-02T12:58:49.564Z,2.10
2022-08-02T13:01:24.021Z,4.35
2022-08-02T13:04:07.659Z,1.42
2022-08-02T13:06:44.301Z,1.35
2022-08-02T13:09:15.742Z,1.95
2022-08-02T13:11:44.849Z,1.95
2022-08-02T13:14:16.133Z,1.60
2022-08-02T13:16:47.587Z,3.03
2022-08-02T13:19:16.705Z,1.30
2022-08-02T13:22:01.091Z,7.32
2022-08-02T13:24:41.348Z,4.03
2022-08-02T13:27:21.730Z,6.35
2022-08-02T13:29:51.187Z,2.10
2022-08-02T13:32:25.895Z,1.85
2022-08-02T13:34:54.221Z,1.40
2022-08-02T13:37:22.555Z,4.90
2022-08-02T13:40:18.778Z,3.72
2022-08-02T13:42:39.076Z,5.95
2022-08-02T13:45:13.345Z,2.58
2022-08-02T13:48:03.830Z,3.03
2022-08-02T13:50:34.611Z,3.00
2022-08-02T13:53:21.230Z,5.15
2022-08-02T13:55:56.184Z,1.25
2022-08-02T13:58:25.117Z,2.80
2022-08-02T14:00:53.680Z,3.13
2022-08-02T14:03:23.319Z,3.40
2022-08-02T14:06:12.228Z,4.07
2022-08-02T14:08:40.472Z,1.50
2022-08-02T14:11:08.717Z,3.00
2022-08-02T14:13:37.232Z,1.42
2022-08-02T14:16:06.022Z,1.38
2022-08-02T14:18:35.670Z,3.50
2022-08-02T14:21:04.609Z,1.20
2022-08-02T14:23:49.013Z,6.55
2022-08-02T14:26:27.327Z,2.03
2022-08-02T14:28:56.330Z,1.30
2022-08-02T14:31:24.650Z,3.40
2022-08-02T14:33:54.158Z,2.03
2022-08-02T14:36:27.115Z,2.50
2022-08-02T14:38:57.570Z,1.55
2022-08-02T14:41:25.861Z,2.92
2022-08-02T14:44:06.255Z,5.20
2022-08-02T14:46:40.492Z,4.78
2022-08-02T14:49:50.244Z,1.52
2022-08-02T14:52:20.594Z,8.60
2022-08-02T14:54:48.976Z,3.10
2022-08-02T14:57:18.508Z,2.67
2022-08-02T14:59:47.317Z,3.33
2022-08-02T15:02:16.324Z,2.15
2022-08-02T15:04:44.931Z,3.38
2022-08-02T15:07:14.597Z,1.50
2022-08-02T15:09:44.157Z,3.80
2022-08-02T15:12:14.506Z,3.33
2022-08-02T15:14:43.387Z,2.83
2022-08-02T15:17:12.309Z,4.50
2022-08-02T15:19:57.745Z,8.50
2022-08-02T15:22:29.401Z,2.28
2022-08-02T15:25:00.836Z,3.65
2022-08-02T15:27:29.098Z,1.40
2022-08-02T15:30:00.772Z,3.30
2022-08-02T15:32:29.979Z,3.58
2022-08-02T15:34:58.139Z,1.55
2022-08-02T15:37:30.816Z,3.38
2022-08-02T15:40:01.438Z,1.45
2022-08-02T15:42:31.090Z,1.50
2022-08-02T15:45:00.588Z,6.05
2022-08-02T15:47:29.110Z,2.00
2022-08-02T15:49:58.468Z,2.15
2022-08-02T15:52:27.305Z,4.10
2022-08-02T15:54:55.872Z,2.33
2022-08-02T15:57:25.954Z,2.67
2022-08-02T15:59:54.438Z,1.48
2022-08-02T16:02:23.202Z,1.58
2022-08-02T16:05:29.306Z,5.45
2022-08-02T16:08:03.704Z,4.00
2022-08-02T16:10:32.176Z,2.80
2022-08-02T16:13:15.655Z,4.95
2022-08-02T16:15:44.089Z,4.60
2022-08-02T16:18:12.338Z,1.25
2022-08-02T16:20:40.564Z,2.75
2022-08-02T16:23:08.840Z,3.83
2022-08-02T16:25:41.746Z,5.47
2022-08-02T16:28:11.950Z,2.05
2022-08-02T16:30:42.135Z,2.55
2022-08-02T16:33:10.920Z,3.95
2022-08-02T16:35:47.431Z,4.43
2022-08-02T16:38:16.010Z,7.07
2022-08-02T16:40:44.610Z,2.10
2022-08-02T16:43:14.134Z,3.05
2022-08-02T16:45:42.305Z,6.25
2022-08-02T16:48:13.724Z,3.00
2022-08-02T16:50:46.404Z,1.60
2022-08-02T16:53:36.655Z,4.68
2022-08-02T16:56:06.158Z,2.30
2022-08-02T16:58:37.002Z,6.40
2022-08-02T17:01:05.618Z,2.40
2022-08-02T17:03:55.937Z,2.33
2022-08-02T17:06:22.164Z,1.52
2022-08-02T17:08:56.335Z,4.28
2022-08-02T17:11:25.825Z,1.45
2022-08-02T17:13:55.623Z,2.67
2022-08-02T17:16:25.931Z,5.65
2022-08-02T17:19:12.656Z,2.13
2022-08-02T17:21:40.988Z,1.98
2022-08-02T17:24:09.285Z,1.60
2022-08-02T17:26:40.335Z,4.55
2022-08-02T17:29:32.852Z,2.55
2022-08-02T17:32:04.686Z,1.52
2022-08-02T17:34:35.042Z,3.13
2022-08-02T17:37:05.565Z,2.30
2022-08-02T17:39:44.082Z,1.08
2022-08-02T17:42:23.167Z,1.08
2022-08-02T17:44:54.361Z,4.00
2022-08-02T17:47:23.533Z,4.40
2022-08-02T17:49:59.950Z,5.22
2022-08-02T17:52:50.345Z,4.95
2022-08-02T17:55:17.314Z,3.05
2022-08-02T17:57:58.206Z,3.08
2022-08-02T18:00:33.653Z,1.58
2022-08-02T18:03:05.841Z,2.45
2022-08-02T18:05:40.396Z,4.95
2022-08-02T18:08:22.875Z,5.25
2022-08-02T18:10:51.327Z,1.55
2022-08-02T18:13:19.944Z,3.25
2022-08-02T18:15:52.580Z,3.00
2022-08-02T18:21:22.731Z,9.60
2022-08-02T18:23:58.459Z,3.72
2022-08-02T18:26:28.686Z,3.20
2022-08-02T18:28:57.541Z,4.15
2022-08-02T18:31:27.206Z,2.10
2022-08-02T18:34:02.068Z,4.07
2022-08-02T18:36:31.663Z,3.95
2022-08-02T18:39:08.214Z,4.63
2022-08-02T18:41:37.888Z,1.42
2022-08-02T18:44:07.276Z,3.15
2022-08-02T18:46:36.831Z,2.92
2022-08-02T18:49:14.992Z,5.70
2022-08-02T18:51:44.265Z,4.18
2022-08-02T18:54:15.645Z,4.00
2022-08-02T18:56:50.249Z,8.20
2022-08-02T18:59:19.511Z,2.10
2022-08-02T19:01:50.640Z,3.07
2022-08-02T19:04:27.061Z,1.50
2022-08-02T19:06:56.726Z,4.13
2022-08-02T19:09:36.076Z,3.87
2022-08-02T19:12:09.182Z,3.87
2022-08-02T19:14:38.977Z,5.90
2022-08-02T19:17:16.139Z,2.57
2022-08-02T19:19:57.630Z,3.50
2022-08-02T19:22:45.583Z,2.33
2022-08-02T19:25:19.132Z,6.70
2022-08-02T19:27:49.159Z,6.30
2022-08-02T19:30:19.645Z,3.50
2022-08-02T19:32:59.032Z,2.37
2022-08-02T19:35:31.487Z,5.60
2022-08-02T19:38:10.683Z,2.13
2022-08-02T19:40:41.843Z,1.43
2022-08-02T19:44:27.117Z,1.87
2022-08-02T19:45:59.512Z,4.00
2022-08-02T19:48:29.176Z,2.47
2022-08-02T19:51:00.688Z,3.07
2022-08-02T19:53:48.251Z,4.00
2022-08-02T19:59:13.379Z,4.67
2022-08-02T20:01:48.499Z,5.90
2022-08-02T20:04:23.031Z,1.37
2022-08-02T20:06:52.166Z,1.77
2022-08-02T20:09:23.117Z,5.10
2022-08-02T20:11:54.913Z,1.90
2022-08-02T20:14:26.970Z,1.70
2022-08-02T20:16:56.769Z,2.53
2022-08-02T20:19:29.649Z,4.43
2022-08-02T20:22:00.110Z,4.93
2022-08-02T20:24:29.659Z,4.83
2022-08-02T20:26:59.154Z,2.20
2022-08-02T20:29:43.563Z,2.77
2022-08-02T20:32:22.777Z,1.40
2022-08-02T20:34:53.324Z,2.57
2022-08-02T20:37:59.722Z,2.60
2022-08-02T20:40:17.061Z,1.70
2022-08-02T20:42:47.749Z,3.53
2022-08-02T20:45:36.206Z,2.90
2022-08-02T20:48:05.026Z,5.07
2022-08-02T20:51:12.093Z,4.17
2022-08-02T20:53:55.049Z,2.93
2022-08-02T20:56:24.942Z,1.50
2022-08-02T20:58:54.315Z,4.13
2022-08-02T21:01:36.737Z,2.30
2022-08-02T21:04:05.728Z,3.13
2022-08-02T21:06:34.562Z,1.17
2022-08-02T21:09:08.661Z,3.07
2022-08-02T21:11:36.903Z,3.00
2022-08-02T21:14:07.252Z,3.13
2022-08-02T21:17:44.031Z,1.30
2022-08-02T21:20:16.742Z,3.07
2022-08-02T21:22:48.434Z,3.53
2022-08-02T21:25:21.575Z,4.27
2022-08-02T21:28:10.045Z,2.30
2022-08-02T21:30:46.103Z,5.87
2022-08-02T21:33:23.432Z,1.77
2022-08-02T21:35:53.153Z,1.47
2022-08-02T21:38:35.560Z,3.47
2022-08-02T21:41:12.035Z,5.60
2022-08-02T21:43:40.557Z,5.10
2022-08-02T21:46:14.565Z,1.40
2022-08-02T21:49:27.301Z,1.20
2022-08-02T21:52:14.994Z,4.07
2022-08-02T21:54:45.186Z,1.93
2022-08-02T21:57:20.145Z,1.60
2022-08-02T21:59:53.033Z,2.23
2022-08-02T22:02:30.821Z,3.47
2022-08-02T22:04:59.627Z,2.30
2022-08-02T22:07:38.291Z,6.30
2022-08-02T22:10:09.137Z,5.53
2022-08-02T22:12:38.861Z,2.20
2022-08-02T22:15:11.511Z,2.20
2022-08-02T22:17:53.635Z,3.37
2022-08-02T22:20:29.140Z,1.93
2022-08-02T22:22:57.535Z,3.93
2022-08-02T22:25:36.333Z,3.43
2022-08-02T22:28:36.768Z,2.27
2022-08-02T22:31:00.037Z,3.93
2022-08-02T22:34:11.587Z,3.00
2022-08-02T22:36:55.896Z,3.33
2022-08-02T22:39:24.271Z,3.37
2022-08-02T22:42:06.221Z,4.17
2022-08-02T22:44:37.222Z,3.97
2022-08-02T22:47:14.427Z,7.03
2022-08-02T22:49:54.270Z,7.43
2022-08-02T22:52:25.572Z,2.70
2022-08-02T22:54:54.803Z,2.50
2022-08-02T22:57:30.789Z,4.83
2022-08-02T22:59:00.020Z,5.70
2022-08-02T22:59:06.990Z,2.53
2022-08-02T23:00:01.371Z,2.00
2022-08-02T23:02:29.977Z,4.67
2022-08-02T23:04:58.827Z,3.33
2022-08-02T23:07:27.572Z,3.97
2022-08-02T23:09:55.825Z,7.20
2022-08-02T23:12:24.631Z,3.00
2022-08-02T23:14:54.088Z,4.83
2022-08-02T23:17:41.256Z,6.20
2022-08-02T23:20:10.929Z,4.47
2022-08-02T23:22:39.429Z,1.70
2022-08-02T23:25:09.599Z,2.83
2022-08-02T23:27:38.144Z,3.37
2022-08-02T23:30:38.525Z,2.13
2022-08-02T23:33:09.759Z,2.33
2022-08-02T23:35:39.983Z,1.87
2022-08-02T23:38:10.028Z,3.97
2022-08-02T23:40:40.361Z,4.47
2022-08-02T23:43:14.756Z,3.33
2022-08-02T23:45:46.394Z,1.93
2022-08-02T23:48:16.493Z,2.00
2022-08-02T23:50:44.694Z,2.57
2022-08-02T23:53:12.960Z,4.03
2022-08-02T23:55:41.271Z,4.23
2022-08-02T23:58:09.544Z,2.47
